EISG

Sligo Airport

Sligo, Ireland
METAR EISG 190830Z 20020G43KT 150V230 4600 BKN017 BKN027 OVC033 11/08 Q0982
Observed Flight Rules
Sep-19 @ 08:30 UTC (34 minutes ago) Instrument Flight Rules
Wind Visibility Clouds
200° at 20 knots
 Gusting to 43 knots
4,603 meters
  • Broken at 1,700' AGL
  • Broken at 2,700' AGL
  • Overcast at 3,300' AGL
Temperatures Readings
Current 11°C / 52°F
Dewpoint 8°C / 46°F
Humidity 82%
Altimeter 29" Hg
Pressure 982 hPa
Elevation 3
METAR EISG 190830Z 20020G43KT 150V230 4600 BKN017 BKN027 OVC033 11/08 Q0982
Observed Flight Rules
Sep-19 @ 08:30 UTC
(34 minutes ago)
IFR
Wind Visibility
200° at 20 knots
 Gusting to 43 knots
4,603 meters
Clouds
  • Broken at 1,700' AGL
  • Broken at 2,700' AGL
  • Overcast at 3,300' AGL
Temperature Dewpoint
11°C / 52°F 8°C / 46°F
Humidity Altimeter Pressure
82% 29" Hg 982 hPa